sensor_id;sensor_type;location;lat;lon;timestamp;P1;durP1;ratioP1;P2;durP2;ratioP2
10497;SDS011;5296;51.060;13.750;2023-08-01T00:00:52;4.95;;;2.83;;
10497;SDS011;5296;51.060;13.750;2023-08-01T00:05:54;3.20;;;2.70;;
10497;SDS011;5296;51.060;13.750;2023-08-01T00:10:56;4.20;;;2.60;;
10497;SDS011;5296;51.060;13.750;2023-08-01T00:15:58;5.13;;;2.88;;
10497;SDS011;5296;51.060;13.750;2023-08-01T00:21:03;5.20;;;2.90;;
10497;SDS011;5296;51.060;13.750;2023-08-01T00:26:06;3.92;;;2.60;;
10497;SDS011;5296;51.060;13.750;2023-08-01T00:31:08;4.25;;;2.92;;
10497;SDS011;5296;51.060;13.750;2023-08-01T00:36:10;4.60;;;2.75;;
10497;SDS011;5296;51.060;13.750;2023-08-01T00:41:12;3.40;;;2.88;;
10497;SDS011;5296;51.060;13.750;2023-08-01T00:46:14;4.00;;;2.78;;
10497;SDS011;5296;51.060;13.750;2023-08-01T00:51:16;4.15;;;3.05;;
10497;SDS011;5296;51.060;13.750;2023-08-01T00:56:19;4.18;;;2.90;;
10497;SDS011;5296;51.060;13.750;2023-08-01T01:01:21;4.20;;;2.53;;
10497;SDS011;5296;51.060;13.750;2023-08-01T01:11:42;3.85;;;2.67;;
10497;SDS011;5296;51.060;13.750;2023-08-01T01:16:44;3.88;;;2.95;;
10497;SDS011;5296;51.060;13.750;2023-08-01T01:21:46;4.35;;;2.83;;
10497;SDS011;5296;51.060;13.750;2023-08-01T01:26:49;4.47;;;2.80;;
10497;SDS011;5296;51.060;13.750;2023-08-01T01:31:50;3.28;;;2.78;;
10497;SDS011;5296;51.060;13.750;2023-08-01T01:36:53;3.10;;;2.53;;
10497;SDS011;5296;51.060;13.750;2023-08-01T01:41:55;4.50;;;3.22;;
10497;SDS011;5296;51.060;13.750;2023-08-01T01:46:56;3.78;;;3.03;;
10497;SDS011;5296;51.060;13.750;2023-08-01T01:51:58;4.93;;;3.13;;
10497;SDS011;5296;51.060;13.750;2023-08-01T01:57:00;3.40;;;3.03;;
10497;SDS011;5296;51.060;13.750;2023-08-01T02:02:01;5.45;;;3.10;;
10497;SDS011;5296;51.060;13.750;2023-08-01T02:07:05;4.80;;;3.13;;
10497;SDS011;5296;51.060;13.750;2023-08-01T02:12:07;3.67;;;3.25;;
10497;SDS011;5296;51.060;13.750;2023-08-01T02:17:11;3.97;;;2.80;;
10497;SDS011;5296;51.060;13.750;2023-08-01T02:22:12;3.65;;;3.03;;
10497;SDS011;5296;51.060;13.750;2023-08-01T02:27:14;3.80;;;2.88;;
10497;SDS011;5296;51.060;13.750;2023-08-01T02:32:16;3.38;;;3.08;;
10497;SDS011;5296;51.060;13.750;2023-08-01T02:37:18;4.35;;;3.40;;
10497;SDS011;5296;51.060;13.750;2023-08-01T02:42:20;3.90;;;3.08;;
10497;SDS011;5296;51.060;13.750;2023-08-01T02:47:21;2.80;;;2.60;;
10497;SDS011;5296;51.060;13.750;2023-08-01T02:52:23;3.75;;;2.70;;
10497;SDS011;5296;51.060;13.750;2023-08-01T02:57:25;3.58;;;2.90;;
10497;SDS011;5296;51.060;13.750;2023-08-01T03:02:26;3.97;;;3.20;;
10497;SDS011;5296;51.060;13.750;2023-08-01T03:07:29;3.35;;;2.90;;
10497;SDS011;5296;51.060;13.750;2023-08-01T03:12:31;3.92;;;3.38;;
10497;SDS011;5296;51.060;13.750;2023-08-01T03:17:33;4.80;;;2.97;;
10497;SDS011;5296;51.060;13.750;2023-08-01T03:22:34;3.10;;;2.75;;
10497;SDS011;5296;51.060;13.750;2023-08-01T03:27:36;4.45;;;3.08;;
10497;SDS011;5296;51.060;13.750;2023-08-01T03:32:38;3.95;;;3.00;;
10497;SDS011;5296;51.060;13.750;2023-08-01T03:37:40;3.60;;;3.03;;
10497;SDS011;5296;51.060;13.750;2023-08-01T03:42:42;4.05;;;3.13;;
10497;SDS011;5296;51.060;13.750;2023-08-01T03:47:45;3.38;;;3.05;;
10497;SDS011;5296;51.060;13.750;2023-08-01T03:52:47;4.95;;;3.08;;
10497;SDS011;5296;51.060;13.750;2023-08-01T03:57:49;3.70;;;3.00;;
10497;SDS011;5296;51.060;13.750;2023-08-01T04:02:50;4.22;;;2.67;;
10497;SDS011;5296;51.060;13.750;2023-08-01T04:07:52;3.45;;;2.90;;
10497;SDS011;5296;51.060;13.750;2023-08-01T04:12:56;3.17;;;2.83;;
10497;SDS011;5296;51.060;13.750;2023-08-01T04:17:57;3.50;;;2.80;;
10497;SDS011;5296;51.060;13.750;2023-08-01T04:22:59;4.18;;;3.28;;
10497;SDS011;5296;51.060;13.750;2023-08-01T04:28:01;5.63;;;3.47;;
10497;SDS011;5296;51.060;13.750;2023-08-01T04:33:02;4.00;;;3.20;;
10497;SDS011;5296;51.060;13.750;2023-08-01T04:38:04;3.70;;;3.30;;
10497;SDS011;5296;51.060;13.750;2023-08-01T04:43:06;3.85;;;3.20;;
10497;SDS011;5296;51.060;13.750;2023-08-01T04:48:07;4.20;;;3.33;;
10497;SDS011;5296;51.060;13.750;2023-08-01T04:53:09;4.72;;;3.22;;
10497;SDS011;5296;51.060;13.750;2023-08-01T04:58:12;4.45;;;3.70;;
10497;SDS011;5296;51.060;13.750;2023-08-01T05:03:14;3.72;;;3.42;;
10497;SDS011;5296;51.060;13.750;2023-08-01T05:08:16;3.55;;;3.35;;
10497;SDS011;5296;51.060;13.750;2023-08-01T05:13:18;4.05;;;3.70;;
10497;SDS011;5296;51.060;13.750;2023-08-01T05:18:20;3.90;;;3.58;;
10497;SDS011;5296;51.060;13.750;2023-08-01T05:23:21;3.95;;;3.63;;
10497;SDS011;5296;51.060;13.750;2023-08-01T05:28:23;6.35;;;4.03;;
10497;SDS011;5296;51.060;13.750;2023-08-01T05:33:25;5.43;;;3.92;;
10497;SDS011;5296;51.060;13.750;2023-08-01T05:38:26;5.75;;;4.07;;
10497;SDS011;5296;51.060;13.750;2023-08-01T05:43:28;5.53;;;4.95;;
10497;SDS011;5296;51.060;13.750;2023-08-01T05:48:30;8.68;;;7.72;;
10497;SDS011;5296;51.060;13.750;2023-08-01T05:53:31;10.65;;;9.55;;
10497;SDS011;5296;51.060;13.750;2023-08-01T05:58:33;18.30;;;16.35;;
10497;SDS011;5296;51.060;13.750;2023-08-01T06:03:35;8.25;;;7.45;;
10497;SDS011;5296;51.060;13.750;2023-08-01T06:08:37;5.05;;;4.65;;
10497;SDS011;5296;51.060;13.750;2023-08-01T06:13:38;5.28;;;4.85;;
10497;SDS011;5296;51.060;13.750;2023-08-01T06:18:40;5.82;;;5.15;;
10497;SDS011;5296;51.060;13.750;2023-08-01T06:23:42;5.15;;;4.65;;
10497;SDS011;5296;51.060;13.750;2023-08-01T06:28:43;5.60;;;5.18;;
10497;SDS011;5296;51.060;13.750;2023-08-01T06:33:45;5.72;;;5.28;;
10497;SDS011;5296;51.060;13.750;2023-08-01T06:38:47;6.50;;;5.85;;
10497;SDS011;5296;51.060;13.750;2023-08-01T06:43:48;3.33;;;3.03;;
10497;SDS011;5296;51.060;13.750;2023-08-01T06:48:50;1.60;;;1.50;;
10497;SDS011;5296;51.060;13.750;2023-08-01T06:53:52;1.85;;;1.38;;
10497;SDS011;5296;51.060;13.750;2023-08-01T06:58:53;2.03;;;1.13;;
10497;SDS011;5296;51.060;13.750;2023-08-01T07:03:55;1.70;;;1.50;;
10497;SDS011;5296;51.060;13.750;2023-08-01T07:08:57;1.67;;;1.40;;
10497;SDS011;5296;51.060;13.750;2023-08-01T07:13:59;1.88;;;1.55;;
10497;SDS011;5296;51.060;13.750;2023-08-01T07:19:01;1.27;;;1.17;;
10497;SDS011;5296;51.060;13.750;2023-08-01T07:24:03;1.75;;;1.20;;
10497;SDS011;5296;51.060;13.750;2023-08-01T07:29:05;1.38;;;1.27;;
10497;SDS011;5296;51.060;13.750;2023-08-01T07:34:09;1.25;;;1.10;;
10497;SDS011;5296;51.060;13.750;2023-08-01T07:39:11;1.42;;;1.33;;
10497;SDS011;5296;51.060;13.750;2023-08-01T07:44:13;1.50;;;1.40;;
10497;SDS011;5296;51.060;13.750;2023-08-01T07:49:14;1.50;;;1.40;;
10497;SDS011;5296;51.060;13.750;2023-08-01T07:54:16;2.30;;;1.40;;
10497;SDS011;5296;51.060;13.750;2023-08-01T07:59:18;4.72;;;1.42;;
10497;SDS011;5296;51.060;13.750;2023-08-01T08:04:19;2.03;;;1.50;;
10497;SDS011;5296;51.060;13.750;2023-08-01T08:09:21;2.35;;;1.55;;
10497;SDS011;5296;51.060;13.750;2023-08-01T08:14:25;1.30;;;1.20;;
10497;SDS011;5296;51.060;13.750;2023-08-01T08:19:27;1.30;;;1.20;;
10497;SDS011;5296;51.060;13.750;2023-08-01T08:24:29;1.30;;;1.20;;
10497;SDS011;5296;51.060;13.750;2023-08-01T08:29:31;1.40;;;1.30;;
10497;SDS011;5296;51.060;13.750;2023-08-01T08:34:33;1.17;;;1.08;;
10497;SDS011;5296;51.060;13.750;2023-08-01T08:39:35;1.40;;;1.30;;
10497;SDS011;5296;51.060;13.750;2023-08-01T08:44:41;1.42;;;1.20;;
10497;SDS011;5296;51.060;13.750;2023-08-01T08:49:44;1.27;;;1.17;;
10497;SDS011;5296;51.060;13.750;2023-08-01T08:54:47;1.30;;;1.20;;
10497;SDS011;5296;51.060;13.750;2023-08-01T08:59:49;0.93;;;0.90;;
10497;SDS011;5296;51.060;13.750;2023-08-01T09:04:51;1.00;;;0.82;;
10497;SDS011;5296;51.060;13.750;2023-08-01T09:09:53;1.00;;;0.95;;
10497;SDS011;5296;51.060;13.750;2023-08-01T09:14:56;2.53;;;1.17;;
10497;SDS011;5296;51.060;13.750;2023-08-01T09:20:03;1.23;;;1.00;;
10497;SDS011;5296;51.060;13.750;2023-08-01T09:25:07;1.02;;;0.90;;
10497;SDS011;5296;51.060;13.750;2023-08-01T09:30:10;1.42;;;0.93;;
10497;SDS011;5296;51.060;13.750;2023-08-01T09:35:14;1.10;;;1.00;;
10497;SDS011;5296;51.060;13.750;2023-08-01T09:40:16;1.48;;;0.90;;
10497;SDS011;5296;51.060;13.750;2023-08-01T09:45:18;2.45;;;0.90;;
10497;SDS011;5296;51.060;13.750;2023-08-01T09:50:20;1.20;;;1.00;;
10497;SDS011;5296;51.060;13.750;2023-08-01T09:55:30;1.23;;;1.13;;
10497;SDS011;5296;51.060;13.750;2023-08-01T10:00:33;1.27;;;1.13;;
10497;SDS011;5296;51.060;13.750;2023-08-01T10:05:35;1.30;;;1.05;;
10497;SDS011;5296;51.060;13.750;2023-08-01T10:10:38;2.67;;;1.00;;
10497;SDS011;5296;51.060;13.750;2023-08-01T10:15:40;1.58;;;1.38;;
10497;SDS011;5296;51.060;13.750;2023-08-01T10:20:43;1.00;;;0.90;;
10497;SDS011;5296;51.060;13.750;2023-08-01T10:25:45;1.92;;;1.00;;
10497;SDS011;5296;51.060;13.750;2023-08-01T10:30:47;1.70;;;1.23;;
10497;SDS011;5296;51.060;13.750;2023-08-01T10:35:49;1.20;;;1.10;;
10497;SDS011;5296;51.060;13.750;2023-08-01T10:40:50;0.70;;;0.70;;
10497;SDS011;5296;51.060;13.750;2023-08-01T10:46:02;2.35;;;1.10;;
10497;SDS011;5296;51.060;13.750;2023-08-01T10:51:04;1.10;;;1.00;;
10497;SDS011;5296;51.060;13.750;2023-08-01T10:56:06;1.33;;;1.00;;
10497;SDS011;5296;51.060;13.750;2023-08-01T11:01:09;1.35;;;1.25;;
10497;SDS011;5296;51.060;13.750;2023-08-01T11:06:10;1.30;;;1.17;;
10497;SDS011;5296;51.060;13.750;2023-08-01T11:11:13;1.90;;;0.90;;
10497;SDS011;5296;51.060;13.750;2023-08-01T11:16:16;2.47;;;0.90;;
10497;SDS011;5296;51.060;13.750;2023-08-01T11:21:27;0.70;;;0.70;;
10497;SDS011;5296;51.060;13.750;2023-08-01T11:26:29;0.80;;;0.73;;
10497;SDS011;5296;51.060;13.750;2023-08-01T11:31:30;1.88;;;0.80;;
10497;SDS011;5296;51.060;13.750;2023-08-01T11:36:32;1.27;;;1.00;;
10497;SDS011;5296;51.060;13.750;2023-08-01T11:41:34;0.70;;;0.70;;
10497;SDS011;5296;51.060;13.750;2023-08-01T11:46:37;2.60;;;1.45;;
10497;SDS011;5296;51.060;13.750;2023-08-01T11:51:41;0.77;;;0.77;;
10497;SDS011;5296;51.060;13.750;2023-08-01T11:56:43;0.93;;;0.82;;
10497;SDS011;5296;51.060;13.750;2023-08-01T12:01:46;1.95;;;1.10;;
10497;SDS011;5296;51.060;13.750;2023-08-01T12:06:48;1.25;;;1.15;;
10497;SDS011;5296;51.060;13.750;2023-08-01T12:11:57;1.33;;;1.23;;
10497;SDS011;5296;51.060;13.750;2023-08-01T12:17:00;3.35;;;1.25;;
10497;SDS011;5296;51.060;13.750;2023-08-01T12:22:02;4.05;;;1.17;;
10497;SDS011;5296;51.060;13.750;2023-08-01T12:27:07;2.80;;;0.98;;
10497;SDS011;5296;51.060;13.750;2023-08-01T12:32:09;1.90;;;1.10;;
10497;SDS011;5296;51.060;13.750;2023-08-01T12:37:11;2.92;;;1.00;;
10497;SDS011;5296;51.060;13.750;2023-08-01T12:42:12;3.22;;;1.17;;
10497;SDS011;5296;51.060;13.750;2023-08-01T12:47:14;3.70;;;1.08;;
10497;SDS011;5296;51.060;13.750;2023-08-01T12:52:22;0.90;;;0.90;;
10497;SDS011;5296;51.060;13.750;2023-08-01T12:57:28;1.65;;;1.27;;
10497;SDS011;5296;51.060;13.750;2023-08-01T13:02:31;1.63;;;1.08;;
10497;SDS011;5296;51.060;13.750;2023-08-01T13:07:33;1.23;;;1.10;;
10497;SDS011;5296;51.060;13.750;2023-08-01T13:12:35;1.85;;;0.93;;
10497;SDS011;5296;51.060;13.750;2023-08-01T13:17:38;1.98;;;1.10;;
10497;SDS011;5296;51.060;13.750;2023-08-01T13:22:40;2.50;;;1.30;;
10497;SDS011;5296;51.060;13.750;2023-08-01T13:27:41;2.05;;;1.30;;
10497;SDS011;5296;51.060;13.750;2023-08-01T13:32:44;1.30;;;1.20;;
10497;SDS011;5296;51.060;13.750;2023-08-01T13:37:49;1.95;;;1.40;;
10497;SDS011;5296;51.060;13.750;2023-08-01T13:42:50;2.25;;;1.52;;
10497;SDS011;5296;51.060;13.750;2023-08-01T13:47:52;1.40;;;1.30;;
10497;SDS011;5296;51.060;13.750;2023-08-01T13:52:54;1.75;;;1.40;;
10497;SDS011;5296;51.060;13.750;2023-08-01T13:57:55;1.88;;;1.60;;
10497;SDS011;5296;51.060;13.750;2023-08-01T14:02:57;1.95;;;1.73;;
10497;SDS011;5296;51.060;13.750;2023-08-01T14:07:59;2.60;;;2.08;;
10497;SDS011;5296;51.060;13.750;2023-08-01T14:13:03;2.00;;;1.85;;
10497;SDS011;5296;51.060;13.750;2023-08-01T14:18:04;3.33;;;2.33;;
10497;SDS011;5296;51.060;13.750;2023-08-01T14:23:06;2.20;;;2.00;;
10497;SDS011;5296;51.060;13.750;2023-08-01T14:28:08;2.88;;;2.33;;
10497;SDS011;5296;51.060;13.750;2023-08-01T14:33:09;2.50;;;2.30;;
10497;SDS011;5296;51.060;13.750;2023-08-01T14:38:11;2.72;;;2.40;;
10497;SDS011;5296;51.060;13.750;2023-08-01T14:43:13;2.80;;;2.50;;
10497;SDS011;5296;51.060;13.750;2023-08-01T14:48:14;3.72;;;2.80;;
10497;SDS011;5296;51.060;13.750;2023-08-01T14:53:16;3.42;;;2.67;;
10497;SDS011;5296;51.060;13.750;2023-08-01T14:58:18;3.25;;;2.63;;
10497;SDS011;5296;51.060;13.750;2023-08-01T15:03:19;3.75;;;3.05;;
10497;SDS011;5296;51.060;13.750;2023-08-01T15:08:21;5.00;;;2.75;;
10497;SDS011;5296;51.060;13.750;2023-08-01T15:13:23;3.17;;;2.90;;
10497;SDS011;5296;51.060;13.750;2023-08-01T15:18:25;4.18;;;3.45;;
10497;SDS011;5296;51.060;13.750;2023-08-01T15:23:27;3.42;;;2.85;;
10497;SDS011;5296;51.060;13.750;2023-08-01T15:28:28;4.57;;;3.00;;
10497;SDS011;5296;51.060;13.750;2023-08-01T15:33:37;3.40;;;2.92;;
10497;SDS011;5296;51.060;13.750;2023-08-01T15:38:39;3.30;;;3.00;;
10497;SDS011;5296;51.060;13.750;2023-08-01T15:43:41;3.63;;;3.00;;
10497;SDS011;5296;51.060;13.750;2023-08-01T15:48:43;3.42;;;2.80;;
10497;SDS011;5296;51.060;13.750;2023-08-01T15:53:44;3.20;;;2.75;;
10497;SDS011;5296;51.060;13.750;2023-08-01T15:58:46;3.63;;;2.70;;
10497;SDS011;5296;51.060;13.750;2023-08-01T16:03:48;3.10;;;2.60;;
10497;SDS011;5296;51.060;13.750;2023-08-01T16:08:49;2.85;;;2.65;;
10497;SDS011;5296;51.060;13.750;2023-08-01T16:13:51;2.78;;;2.38;;
10497;SDS011;5296;51.060;13.750;2023-08-01T16:18:53;2.53;;;2.08;;
10497;SDS011;5296;51.060;13.750;2023-08-01T16:23:54;3.08;;;2.05;;
10497;SDS011;5296;51.060;13.750;2023-08-01T16:28:57;3.67;;;2.05;;
10497;SDS011;5296;51.060;13.750;2023-08-01T16:33:58;1.75;;;1.55;;
10497;SDS011;5296;51.060;13.750;2023-08-01T16:39:00;1.65;;;1.55;;
10497;SDS011;5296;51.060;13.750;2023-08-01T16:44:02;1.60;;;1.50;;
10497;SDS011;5296;51.060;13.750;2023-08-01T16:49:03;1.73;;;1.63;;
10497;SDS011;5296;51.060;13.750;2023-08-01T16:54:22;1.70;;;1.60;;
10497;SDS011;5296;51.060;13.750;2023-08-01T16:59:23;1.80;;;1.70;;
10497;SDS011;5296;51.060;13.750;2023-08-01T17:04:25;1.88;;;1.67;;
10497;SDS011;5296;51.060;13.750;2023-08-01T17:09:28;2.67;;;1.80;;
10497;SDS011;5296;51.060;13.750;2023-08-01T17:14:30;4.03;;;1.80;;
10497;SDS011;5296;51.060;13.750;2023-08-01T17:19:32;4.13;;;1.70;;
10497;SDS011;5296;51.060;13.750;2023-08-01T17:24:34;2.03;;;1.75;;
10497;SDS011;5296;51.060;13.750;2023-08-01T17:29:35;3.50;;;1.73;;
10497;SDS011;5296;51.060;13.750;2023-08-01T17:34:37;2.72;;;1.92;;
10497;SDS011;5296;51.060;13.750;2023-08-01T17:39:39;2.25;;;1.80;;
10497;SDS011;5296;51.060;13.750;2023-08-01T17:44:40;1.98;;;1.83;;
10497;SDS011;5296;51.060;13.750;2023-08-01T17:49:42;5.75;;;2.00;;
10497;SDS011;5296;51.060;13.750;2023-08-01T17:54:45;3.85;;;2.00;;
10497;SDS011;5296;51.060;13.750;2023-08-01T17:59:47;2.60;;;1.90;;
10497;SDS011;5296;51.060;13.750;2023-08-01T18:04:49;3.47;;;2.10;;
10497;SDS011;5296;51.060;13.750;2023-08-01T18:09:50;5.47;;;2.53;;
10497;SDS011;5296;51.060;13.750;2023-08-01T18:14:52;2.40;;;2.10;;
10497;SDS011;5296;51.060;13.750;2023-08-01T18:19:54;4.57;;;2.50;;
10497;SDS011;5296;51.060;13.750;2023-08-01T18:24:55;2.35;;;2.10;;
10497;SDS011;5296;51.060;13.750;2023-08-01T18:30:00;2.05;;;1.85;;
10497;SDS011;5296;51.060;13.750;2023-08-01T18:35:02;2.05;;;1.85;;
10497;SDS011;5296;51.060;13.750;2023-08-01T18:40:04;1.98;;;1.80;;
10497;SDS011;5296;51.060;13.750;2023-08-01T18:45:06;4.80;;;2.03;;
10497;SDS011;5296;51.060;13.750;2023-08-01T18:50:09;2.72;;;2.00;;
10497;SDS011;5296;51.060;13.750;2023-08-01T18:55:10;2.05;;;1.80;;
10497;SDS011;5296;51.060;13.750;2023-08-01T19:00:12;2.20;;;2.00;;
10497;SDS011;5296;51.060;13.750;2023-08-01T19:05:14;2.55;;;2.10;;
10497;SDS011;5296;51.060;13.750;2023-08-01T19:10:16;3.53;;;2.25;;
10497;SDS011;5296;51.060;13.750;2023-08-01T19:15:18;2.00;;;1.80;;
10497;SDS011;5296;51.060;13.750;2023-08-01T19:20:19;2.60;;;1.90;;
10497;SDS011;5296;51.060;13.750;2023-08-01T19:25:23;1.88;;;1.77;;
10497;SDS011;5296;51.060;13.750;2023-08-01T19:30:25;2.08;;;1.88;;
10497;SDS011;5296;51.060;13.750;2023-08-01T19:35:38;3.60;;;2.40;;
10497;SDS011;5296;51.060;13.750;2023-08-01T19:40:41;3.55;;;2.60;;
10497;SDS011;5296;51.060;13.750;2023-08-01T19:45:44;2.28;;;2.08;;
10497;SDS011;5296;51.060;13.750;2023-08-01T19:50:47;3.20;;;2.25;;
10497;SDS011;5296;51.060;13.750;2023-08-01T19:55:56;2.42;;;2.20;;
10497;SDS011;5296;51.060;13.750;2023-08-01T20:00:57;2.92;;;2.17;;
10497;SDS011;5296;51.060;13.750;2023-08-01T20:05:59;2.53;;;2.03;;
10497;SDS011;5296;51.060;13.750;2023-08-01T20:11:02;2.55;;;2.17;;
10497;SDS011;5296;51.060;13.750;2023-08-01T20:16:04;3.38;;;2.10;;
10497;SDS011;5296;51.060;13.750;2023-08-01T20:21:05;3.45;;;2.53;;
10497;SDS011;5296;51.060;13.750;2023-08-01T20:26:07;4.20;;;2.10;;
10497;SDS011;5296;51.060;13.750;2023-08-01T20:31:09;1.90;;;1.80;;
10497;SDS011;5296;51.060;13.750;2023-08-01T20:36:11;2.33;;;2.13;;
10497;SDS011;5296;51.060;13.750;2023-08-01T20:41:13;2.30;;;1.90;;
10497;SDS011;5296;51.060;13.750;2023-08-01T20:46:15;4.25;;;2.20;;
10497;SDS011;5296;51.060;13.750;2023-08-01T20:51:17;2.45;;;2.00;;
10497;SDS011;5296;51.060;13.750;2023-08-01T20:56:19;2.80;;;2.22;;
10497;SDS011;5296;51.060;13.750;2023-08-01T21:01:20;2.67;;;1.90;;
10497;SDS011;5296;51.060;13.750;2023-08-01T21:06:22;2.50;;;2.30;;
10497;SDS011;5296;51.060;13.750;2023-08-01T21:11:24;3.05;;;2.45;;
10497;SDS011;5296;51.060;13.750;2023-08-01T21:16:26;2.72;;;2.42;;
10497;SDS011;5296;51.060;13.750;2023-08-01T21:21:27;5.97;;;2.80;;
10497;SDS011;5296;51.060;13.750;2023-08-01T21:26:29;2.95;;;2.65;;
10497;SDS011;5296;51.060;13.750;2023-08-01T21:31:31;4.97;;;3.90;;
10497;SDS011;5296;51.060;13.750;2023-08-01T21:36:32;3.13;;;2.80;;
10497;SDS011;5296;51.060;13.750;2023-08-01T21:41:34;3.25;;;2.95;;
10497;SDS011;5296;51.060;13.750;2023-08-01T21:46:36;3.83;;;2.80;;
10497;SDS011;5296;51.060;13.750;2023-08-01T21:51:38;3.15;;;2.85;;
10497;SDS011;5296;51.060;13.750;2023-08-01T21:56:39;4.38;;;2.65;;
10497;SDS011;5296;51.060;13.750;2023-08-01T22:01:42;4.22;;;3.03;;
10497;SDS011;5296;51.060;13.750;2023-08-01T22:06:44;2.72;;;2.50;;
10497;SDS011;5296;51.060;13.750;2023-08-01T22:11:46;5.85;;;2.70;;
10497;SDS011;5296;51.060;13.750;2023-08-01T22:16:47;2.88;;;2.60;;
10497;SDS011;5296;51.060;13.750;2023-08-01T22:21:49;2.42;;;2.10;;
10497;SDS011;5296;51.060;13.750;2023-08-01T22:26:51;2.33;;;2.00;;
10497;SDS011;5296;51.060;13.750;2023-08-01T22:31:53;3.80;;;2.35;;
10497;SDS011;5296;51.060;13.750;2023-08-01T22:36:55;2.30;;;2.10;;
10497;SDS011;5296;51.060;13.750;2023-08-01T22:41:57;3.42;;;2.15;;
10497;SDS011;5296;51.060;13.750;2023-08-01T22:46:59;2.22;;;1.98;;
10497;SDS011;5296;51.060;13.750;2023-08-01T22:52:01;2.10;;;1.92;;
10497;SDS011;5296;51.060;13.750;2023-08-01T22:57:03;2.67;;;1.70;;
10497;SDS011;5296;51.060;13.750;2023-08-01T23:02:04;2.72;;;1.58;;
10497;SDS011;5296;51.060;13.750;2023-08-01T23:07:06;1.70;;;1.60;;
10497;SDS011;5296;51.060;13.750;2023-08-01T23:12:08;4.13;;;1.65;;
10497;SDS011;5296;51.060;13.750;2023-08-01T23:17:10;1.88;;;1.38;;
10497;SDS011;5296;51.060;13.750;2023-08-01T23:22:12;5.55;;;1.75;;
10497;SDS011;5296;51.060;13.750;2023-08-01T23:27:14;2.50;;;1.50;;
10497;SDS011;5296;51.060;13.750;2023-08-01T23:32:16;2.35;;;1.50;;
10497;SDS011;5296;51.060;13.750;2023-08-01T23:37:17;1.63;;;1.52;;
10497;SDS011;5296;51.060;13.750;2023-08-01T23:42:19;3.92;;;1.45;;
10497;SDS011;5296;51.060;13.750;2023-08-01T23:47:21;6.07;;;1.77;;
10497;SDS011;5296;51.060;13.750;2023-08-01T23:52:24;3.38;;;1.77;;
10497;SDS011;5296;51.060;13.750;2023-08-01T23:57:26;2.42;;;1.50;;
